createdAt,value
2022-08-25T00:02:39.042Z,72.95
2022-08-25T00:05:42.216Z,72.93
2022-08-25T00:08:47.874Z,73.53
2022-08-25T00:11:51.368Z,73.28
2022-08-25T00:14:55.421Z,73.11
2022-08-25T00:17:58.508Z,73.04
2022-08-25T00:21:01.328Z,73.42
2022-08-25T00:24:06.004Z,73.78
2022-08-25T00:27:09.538Z,73.62
2022-08-25T00:30:15.931Z,73.66
2022-08-25T00:33:19.509Z,73.51
2022-08-25T00:36:22.681Z,73.59
2022-08-25T00:39:28.016Z,73.75
2022-08-25T00:42:31.523Z,73.85
2022-08-25T00:45:35.488Z,73.66
2022-08-25T00:48:42.308Z,73.86
2022-08-25T00:51:51.492Z,73.71
2022-08-25T00:55:04.299Z,73.71
2022-08-25T00:58:17.166Z,73.70
2022-08-25T01:01:20.040Z,73.45
2022-08-25T01:04:23.899Z,73.55
2022-08-25T01:07:26.719Z,73.58
2022-08-25T01:10:32.238Z,73.58
2022-08-25T01:13:38.963Z,73.85
2022-08-25T01:16:43.927Z,73.65
2022-08-25T01:19:46.577Z,73.85
2022-08-25T01:22:54.997Z,73.97
2022-08-25T01:26:04.975Z,74.00
2022-08-25T01:29:22.792Z,74.19
2022-08-25T01:32:26.043Z,73.98
2022-08-25T01:35:28.878Z,73.77
2022-08-25T01:38:32.903Z,73.50
2022-08-25T01:41:47.956Z,73.52
2022-08-25T01:44:54.524Z,73.51
2022-08-25T01:47:57.376Z,73.45
2022-08-25T01:51:00.013Z,73.30
2022-08-25T01:54:04.233Z,73.47
2022-08-25T01:57:06.983Z,73.45
2022-08-25T02:00:13.407Z,73.75
2022-08-25T02:03:18.768Z,73.68
2022-08-25T02:06:29.812Z,73.64
2022-08-25T02:09:34.787Z,73.38
2022-08-25T02:12:37.626Z,73.42
2022-08-25T02:15:43.039Z,73.48
2022-08-25T02:18:46.479Z,73.65
2022-08-25T02:21:49.125Z,73.77
2022-08-25T02:24:55.519Z,73.55
2022-08-25T02:27:58.396Z,73.40
2022-08-25T02:31:01.885Z,73.35
2022-08-25T02:34:05.358Z,73.29
2022-08-25T02:37:09.720Z,73.89
2022-08-25T02:40:14.412Z,73.79
2022-08-25T02:43:17.374Z,73.98
2022-08-25T02:46:21.854Z,73.87
2022-08-25T02:49:25.340Z,73.77
2022-08-25T02:52:28.104Z,73.59
2022-08-25T02:55:33.703Z,73.62
2022-08-25T02:58:38.567Z,73.52
2022-08-25T03:01:41.684Z,73.54
2022-08-25T03:04:45.243Z,73.64
2022-08-25T03:07:48.110Z,74.15
2022-08-25T03:10:52.919Z,74.06
2022-08-25T03:13:56.623Z,73.83
2022-08-25T03:16:59.419Z,73.79
2022-08-25T03:20:02.336Z,73.88
2022-08-25T03:23:06.086Z,74.16
2022-08-25T03:26:33.803Z,74.04
2022-08-25T03:29:36.520Z,74.44
2022-08-25T03:32:40.025Z,74.38
2022-08-25T03:35:42.971Z,74.09
2022-08-25T03:38:46.228Z,74.29
2022-08-25T03:41:51.628Z,74.38
2022-08-25T03:44:54.805Z,74.97
2022-08-25T03:47:57.834Z,74.88
2022-08-25T03:51:00.903Z,75.39
2022-08-25T03:54:05.261Z,75.57
2022-08-25T03:57:09.796Z,75.86
2022-08-25T04:00:13.208Z,75.99
2022-08-25T04:03:16.568Z,75.21
2022-08-25T04:06:20.318Z,76.30
2022-08-25T04:09:23.655Z,76.34
2022-08-25T04:12:27.670Z,75.96
2022-08-25T04:15:30.466Z,76.26
2022-08-25T04:18:34.282Z,76.24
2022-08-25T04:21:37.853Z,76.02
2022-08-25T04:24:40.630Z,76.32
2022-08-25T04:27:44.726Z,76.62
2022-08-25T04:30:51.838Z,76.57
2022-08-25T04:33:55.307Z,76.57
2022-08-25T04:36:58.251Z,76.74
2022-08-25T04:40:01.085Z,76.40
2022-08-25T04:43:05.148Z,75.61
2022-08-25T04:46:11.292Z,75.87
2022-08-25T04:49:14.059Z,76.34
2022-08-25T04:52:17.057Z,76.41
2022-08-25T04:55:20.131Z,76.48
2022-08-25T04:58:24.258Z,75.85
2022-08-25T05:01:27.298Z,76.53
2022-08-25T05:04:31.232Z,76.17
2022-08-25T05:07:33.952Z,76.84
2022-08-25T05:10:41.230Z,76.48
2022-08-25T05:13:51.273Z,75.88
2022-08-25T05:16:55.142Z,76.67
2022-08-25T05:19:58.011Z,76.41
2022-08-25T05:23:00.659Z,77.17
2022-08-25T05:26:05.987Z,76.63
2022-08-25T05:29:10.940Z,76.49
2022-08-25T05:32:13.605Z,76.42
2022-08-25T05:35:16.589Z,76.00
2022-08-25T05:38:20.074Z,76.22
2022-08-25T05:41:28.402Z,76.15
2022-08-25T05:44:32.395Z,75.92
2022-08-25T05:47:35.444Z,75.81
2022-08-25T05:50:38.061Z,75.42
2022-08-25T05:53:43.013Z,75.75
2022-08-25T05:56:46.468Z,76.80
2022-08-25T05:59:50.664Z,77.96
2022-08-25T06:02:52.370Z,75.97
2022-08-25T06:05:55.269Z,76.37
2022-08-25T06:08:58.054Z,76.22
2022-08-25T06:12:00.687Z,77.02
2022-08-25T06:15:06.107Z,76.57
2022-08-25T06:18:08.834Z,77.53
2022-08-25T06:21:13.719Z,77.29
2022-08-25T06:24:16.536Z,77.81
2022-08-25T06:27:19.476Z,77.12
2022-08-25T06:30:28.559Z,77.52
2022-08-25T06:33:32.386Z,76.92
2022-08-25T06:36:35.695Z,78.01
2022-08-25T06:39:38.431Z,77.25
2022-08-25T06:42:41.151Z,77.49
2022-08-25T06:45:45.153Z,77.44
2022-08-25T06:48:48.414Z,78.28
2022-08-25T06:51:51.257Z,77.82
2022-08-25T06:54:54.643Z,77.50
2022-08-25T06:57:57.297Z,78.76
2022-08-25T07:01:13.449Z,78.93
2022-08-25T07:04:18.745Z,77.94
2022-08-25T07:07:21.407Z,77.73
2022-08-25T07:10:24.476Z,76.66
2022-08-25T07:13:27.273Z,77.38
2022-08-25T07:16:34.273Z,76.53
2022-08-25T07:19:37.004Z,76.20
2022-08-25T07:22:40.169Z,75.13
2022-08-25T07:25:42.879Z,75.37
2022-08-25T07:28:47.439Z,75.28
2022-08-25T07:31:51.961Z,74.88
2022-08-25T07:35:12.531Z,75.14
2022-08-25T07:38:19.653Z,76.00
2022-08-25T07:41:23.825Z,75.48
2022-08-25T07:44:27.999Z,75.53
2022-08-25T07:47:32.717Z,74.88
2022-08-25T07:50:36.201Z,73.25
2022-08-25T07:53:40.169Z,73.61
2022-08-25T07:56:43.272Z,73.87
2022-08-25T07:59:46.920Z,72.60
2022-08-25T08:02:51.140Z,72.25
2022-08-25T08:05:56.462Z,71.50
2022-08-25T08:09:00.013Z,71.83
2022-08-25T08:12:02.724Z,71.25
2022-08-25T08:15:10.382Z,71.26
2022-08-25T08:18:15.987Z,70.88
2022-08-25T08:21:21.741Z,70.80
2022-08-25T08:24:40.627Z,71.36
2022-08-25T08:27:47.173Z,70.59
2022-08-25T08:30:53.713Z,71.42
2022-08-25T08:33:58.986Z,70.26
2022-08-25T08:37:02.035Z,70.82
2022-08-25T08:40:07.207Z,69.66
2022-08-25T08:43:18.953Z,69.78
2022-08-25T08:46:25.944Z,69.22
2022-08-25T08:49:38.844Z,69.87
2022-08-25T08:52:46.163Z,69.15
2022-08-25T08:55:56.767Z,68.55
2022-08-25T08:59:06.310Z,67.17
2022-08-25T09:02:22.100Z,66.42
2022-08-25T09:05:48.340Z,66.43
2022-08-25T09:08:51.361Z,64.78
2022-08-25T09:12:09.706Z,64.96
2022-08-25T09:15:20.381Z,63.48
2022-08-25T09:18:30.097Z,62.71
2022-08-25T09:21:41.459Z,63.13
2022-08-25T09:24:58.133Z,63.01
2022-08-25T09:28:08.460Z,62.83
2022-08-25T09:31:18.832Z,63.55
2022-08-25T09:34:25.643Z,63.54
2022-08-25T09:37:29.866Z,62.61
2022-08-25T09:40:35.322Z,63.03
2022-08-25T09:43:42.611Z,62.22
2022-08-25T09:46:57.124Z,62.25
2022-08-25T09:50:05.320Z,62.67
2022-08-25T09:53:17.619Z,63.26
2022-08-25T09:56:24.367Z,63.72
2022-08-25T09:59:35.196Z,63.26
2022-08-25T10:02:38.621Z,62.83
2022-08-25T10:06:02.714Z,62.40
2022-08-25T10:09:09.751Z,61.01
2022-08-25T10:12:18.794Z,58.82
2022-08-25T10:15:30.327Z,57.83
2022-08-25T10:18:33.468Z,56.37
2022-08-25T10:21:38.333Z,57.23
2022-08-25T10:24:44.150Z,58.68
2022-08-25T10:27:54.975Z,58.25
2022-08-25T10:31:09.706Z,58.73
2022-08-25T10:34:26.419Z,58.49
2022-08-25T10:37:38.313Z,57.17
2022-08-25T10:40:49.847Z,53.47
2022-08-25T10:44:03.965Z,53.22
2022-08-25T10:47:34.540Z,54.68
2022-08-25T10:50:45.464Z,53.83
2022-08-25T10:53:58.053Z,54.65
2022-08-25T10:57:13.053Z,53.84
2022-08-25T11:00:19.601Z,56.48
2022-08-25T11:03:38.920Z,57.28
2022-08-25T11:06:52.708Z,54.80
2022-08-25T11:10:04.087Z,55.08
2022-08-25T11:13:15.734Z,55.99
2022-08-25T11:16:23.237Z,56.27
2022-08-25T11:19:32.782Z,55.30
2022-08-25T11:22:43.642Z,54.69
2022-08-25T11:25:50.525Z,55.60
2022-08-25T11:29:02.543Z,54.54
2022-08-25T11:32:06.293Z,54.63
2022-08-25T11:35:13.076Z,54.24
2022-08-25T11:38:29.964Z,52.96
2022-08-25T11:41:41.699Z,51.64
2022-08-25T11:44:56.079Z,51.07
2022-08-25T11:48:11.645Z,51.18
2022-08-25T11:51:33.802Z,49.83
2022-08-25T11:54:44.379Z,49.33
2022-08-25T11:57:53.587Z,48.47
2022-08-25T12:01:00.140Z,48.67
2022-08-25T12:04:14.850Z,47.62
2022-08-25T12:07:25.035Z,48.30
2022-08-25T12:10:55.945Z,48.04
2022-08-25T12:14:16.194Z,49.54
2022-08-25T12:17:39.621Z,48.58
2022-08-25T12:21:30.744Z,48.53
2022-08-25T12:24:51.618Z,49.48
2022-08-25T12:28:04.896Z,48.21
2022-08-25T12:31:23.142Z,47.76
2022-08-25T12:34:51.411Z,46.80
2022-08-25T12:37:56.973Z,47.82
2022-08-25T12:41:04.686Z,48.18
2022-08-25T12:44:21.022Z,48.10
2022-08-25T12:47:32.430Z,47.76
2022-08-25T12:50:43.250Z,46.64
2022-08-25T12:53:49.450Z,49.52
2022-08-25T12:56:56.184Z,49.55
2022-08-25T13:00:05.664Z,48.98
2022-08-25T13:07:03.028Z,47.17
2022-08-25T13:10:21.472Z,46.60
2022-08-25T13:13:40.671Z,44.95
2022-08-25T13:16:54.442Z,46.16
2022-08-25T13:20:18.153Z,46.58
2022-08-25T13:23:29.207Z,47.99
2022-08-25T13:26:34.871Z,48.10
2022-08-25T13:29:51.562Z,48.14
2022-08-25T13:32:55.768Z,47.31
2022-08-25T13:36:17.574Z,46.76
2022-08-25T13:39:45.526Z,45.88
2022-08-25T13:42:55.583Z,45.45
2022-08-25T13:45:58.879Z,46.04
2022-08-25T13:49:08.765Z,46.25
2022-08-25T13:52:19.239Z,46.05
2022-08-25T13:55:51.507Z,45.79
2022-08-25T13:58:56.426Z,45.23
2022-08-25T14:02:00.173Z,44.95
2022-08-25T14:05:03.578Z,46.81
2022-08-25T14:08:31.767Z,47.72
2022-08-25T14:11:44.900Z,48.31
2022-08-25T14:14:59.656Z,49.17
2022-08-25T14:18:07.275Z,48.82
2022-08-25T14:21:12.019Z,48.89
2022-08-25T14:24:18.030Z,49.63
2022-08-25T14:27:26.596Z,48.65
2022-08-25T14:30:29.695Z,49.05
2022-08-25T14:33:38.533Z,48.66
2022-08-25T14:36:41.384Z,48.49
2022-08-25T14:39:48.093Z,47.85
2022-08-25T14:42:52.154Z,47.57
2022-08-25T14:45:54.833Z,47.39
2022-08-25T14:49:00.478Z,47.90
2022-08-25T14:52:09.813Z,48.43
2022-08-25T14:55:13.852Z,48.06
2022-08-25T14:58:34.995Z,48.13
2022-08-25T15:01:51.626Z,47.01
2022-08-25T15:04:57.634Z,47.09
2022-08-25T15:08:18.418Z,46.42
2022-08-25T15:11:21.542Z,46.91
2022-08-25T15:14:29.088Z,46.47
2022-08-25T15:17:36.115Z,47.41
2022-08-25T15:20:39.905Z,46.67
2022-08-25T15:23:44.576Z,46.66
2022-08-25T15:30:00.852Z,47.24
2022-08-25T15:33:03.847Z,47.59
2022-08-25T15:36:11.208Z,47.87
2022-08-25T15:39:19.103Z,48.17
2022-08-25T15:42:22.676Z,48.27
2022-08-25T15:45:29.055Z,48.00
2022-08-25T15:48:33.789Z,47.56
2022-08-25T15:51:37.223Z,47.77
2022-08-25T15:54:40.705Z,48.32
2022-08-25T15:57:44.674Z,48.99
2022-08-25T16:00:56.267Z,48.70
2022-08-25T16:04:00.006Z,48.12
2022-08-25T16:07:02.604Z,47.44
2022-08-25T16:10:07.424Z,48.30
2022-08-25T16:13:11.377Z,47.99
2022-08-25T16:16:16.228Z,48.42
2022-08-25T16:19:18.959Z,49.11
2022-08-25T16:22:21.750Z,49.89
2022-08-25T16:25:25.472Z,49.45
2022-08-25T16:28:28.487Z,49.68
2022-08-25T16:31:32.687Z,49.81
2022-08-25T16:34:35.946Z,49.61
2022-08-25T16:37:38.649Z,49.83
2022-08-25T16:40:43.812Z,50.06
2022-08-25T16:43:47.818Z,50.12
2022-08-25T16:46:54.309Z,50.41
2022-08-25T16:49:57.349Z,51.09
2022-08-25T16:53:29.899Z,50.94
2022-08-25T16:56:35.279Z,50.76
2022-08-25T16:59:39.777Z,51.02
2022-08-25T17:02:44.483Z,51.37
2022-08-25T17:05:48.708Z,51.59
2022-08-25T17:08:52.896Z,50.74
2022-08-25T17:11:57.128Z,51.67
2022-08-25T17:14:59.981Z,51.96
2022-08-25T17:18:04.029Z,52.23
2022-08-25T17:21:09.815Z,52.00
2022-08-25T17:24:15.218Z,52.47
2022-08-25T17:27:18.659Z,52.82
2022-08-25T17:30:21.622Z,52.61
2022-08-25T17:33:25.772Z,53.42
2022-08-25T17:36:31.328Z,53.78
2022-08-25T17:39:34.767Z,53.51
2022-08-25T17:42:37.508Z,54.09
2022-08-25T17:45:40.821Z,54.68
2022-08-25T17:48:45.569Z,54.02
2022-08-25T17:51:48.375Z,54.55
2022-08-25T17:54:52.593Z,54.59
2022-08-25T17:57:55.927Z,55.34
2022-08-25T18:00:59.510Z,55.31
2022-08-25T18:04:06.382Z,55.93
2022-08-25T18:07:19.795Z,56.05
2022-08-25T18:10:22.826Z,56.66
2022-08-25T18:13:26.693Z,57.14
2022-08-25T18:16:31.296Z,57.30
2022-08-25T18:19:35.339Z,57.60
2022-08-25T18:22:41.659Z,57.50
2022-08-25T18:25:48.811Z,58.34
2022-08-25T18:28:51.628Z,58.56
2022-08-25T18:31:59.680Z,58.60
2022-08-25T18:35:06.266Z,58.61
2022-08-25T18:38:27.322Z,58.79
2022-08-25T18:41:36.975Z,59.42
2022-08-25T18:44:43.768Z,59.57
2022-08-25T18:47:53.178Z,59.84
2022-08-25T18:50:58.072Z,60.20
2022-08-25T18:54:02.353Z,60.24
2022-08-25T18:57:08.337Z,60.26
2022-08-25T19:00:15.814Z,60.54
2022-08-25T19:03:21.834Z,60.53
2022-08-25T19:06:25.858Z,60.58
2022-08-25T19:09:28.800Z,61.08
2022-08-25T19:12:33.864Z,61.18
2022-08-25T19:15:42.348Z,61.40
2022-08-25T19:18:46.166Z,61.57
2022-08-25T19:21:50.857Z,61.95
2022-08-25T19:24:53.893Z,61.87
2022-08-25T19:27:58.459Z,62.14
2022-08-25T19:31:04.305Z,62.26
2022-08-25T19:34:08.530Z,62.49
2022-08-25T19:37:14.196Z,62.64
2022-08-25T19:40:19.579Z,63.07
2022-08-25T19:43:22.943Z,63.44
2022-08-25T19:46:33.019Z,63.58
2022-08-25T19:49:38.423Z,63.77
2022-08-25T19:52:45.105Z,64.08
2022-08-25T19:55:48.619Z,64.28
2022-08-25T19:58:51.743Z,64.44
2022-08-25T20:01:54.603Z,64.54
2022-08-25T20:04:59.958Z,64.71
2022-08-25T20:08:05.631Z,64.93
2022-08-25T20:11:08.404Z,65.43
2022-08-25T20:14:12.176Z,65.68
2022-08-25T20:17:24.190Z,65.91
2022-08-25T20:20:32.373Z,65.99
2022-08-25T20:23:55.922Z,66.10
2022-08-25T20:26:59.126Z,66.28
2022-08-25T20:30:03.258Z,66.41
2022-08-25T20:33:08.149Z,67.02
2022-08-25T20:36:15.050Z,67.23
2022-08-25T20:39:20.332Z,67.02
2022-08-25T20:42:22.991Z,67.59
2022-08-25T20:45:26.036Z,67.78
2022-08-25T20:48:29.256Z,67.69
2022-08-25T20:51:32.200Z,68.04
2022-08-25T20:54:36.977Z,68.09
2022-08-25T20:57:39.789Z,68.32
2022-08-25T21:00:42.919Z,68.40
2022-08-25T21:03:45.602Z,68.69
2022-08-25T21:06:51.414Z,69.27
2022-08-25T21:09:55.632Z,69.39
2022-08-25T21:12:58.597Z,69.21
2022-08-25T21:16:03.665Z,69.12
2022-08-25T21:19:11.068Z,69.67
2022-08-25T21:22:13.832Z,69.76
2022-08-25T21:25:18.925Z,70.36
2022-08-25T21:28:21.719Z,70.55
2022-08-25T21:31:24.637Z,71.10
2022-08-25T21:34:28.883Z,71.06
2022-08-25T21:37:32.071Z,71.39
2022-08-25T21:40:37.424Z,71.73
2022-08-25T21:43:40.226Z,71.17
2022-08-25T21:46:53.816Z,71.45
2022-08-25T21:49:57.742Z,71.33
2022-08-25T21:53:00.444Z,71.59
2022-08-25T21:56:06.194Z,71.38
2022-08-25T21:59:10.829Z,71.62
2022-08-25T22:02:19.172Z,71.45
2022-08-25T22:05:24.506Z,71.50
2022-08-25T22:08:30.610Z,71.88
2022-08-25T22:11:36.097Z,71.99
2022-08-25T22:14:39.520Z,71.82
2022-08-25T22:17:42.734Z,72.05
2022-08-25T22:20:45.570Z,71.94
2022-08-25T22:23:48.373Z,72.36
2022-08-25T22:26:52.418Z,72.86
2022-08-25T22:29:57.088Z,72.36
2022-08-25T22:33:00.015Z,72.81
2022-08-25T22:36:03.129Z,72.97
2022-08-25T22:39:07.785Z,72.73
2022-08-25T22:42:12.194Z,72.63
2022-08-25T22:45:14.834Z,73.00
2022-08-25T22:48:20.819Z,73.42
2022-08-25T22:51:25.588Z,73.36
2022-08-25T22:54:28.767Z,73.37
2022-08-25T22:57:35.366Z,73.26
2022-08-25T23:00:40.088Z,73.77
2022-08-25T23:03:44.422Z,74.13
2022-08-25T23:06:47.455Z,74.00
2022-08-25T23:09:50.120Z,74.12
2022-08-25T23:12:54.313Z,74.03
2022-08-25T23:15:57.005Z,74.20
2022-08-25T23:19:00.388Z,74.15
2022-08-25T23:22:12.644Z,74.39
2022-08-25T23:25:17.038Z,74.30
2022-08-25T23:28:22.599Z,74.31
2022-08-25T23:31:25.283Z,74.34
2022-08-25T23:34:28.760Z,74.51
2022-08-25T23:37:31.418Z,74.41
2022-08-25T23:40:35.087Z,74.43
2022-08-25T23:43:40.428Z,74.76
2022-08-25T23:46:44.564Z,74.70
2022-08-25T23:49:48.088Z,74.75
2022-08-25T23:52:51.204Z,74.96
2022-08-25T23:55:54.635Z,75.25
2022-08-25T23:58:59.709Z,75.30
